sensor_id;sensor_type;location;lat;lon;timestamp;P1;durP1;ratioP1;P2;durP2;ratioP2
36383;SDS011;22418;51.210;6.976;2023-05-16T00:01:37;15.80;;;8.90;;
36383;SDS011;22418;51.210;6.976;2023-05-16T00:04:08;13.48;;;8.55;;
36383;SDS011;22418;51.210;6.976;2023-05-16T00:06:38;12.70;;;8.30;;
36383;SDS011;22418;51.210;6.976;2023-05-16T00:09:09;12.00;;;7.40;;
36383;SDS011;22418;51.210;6.976;2023-05-16T00:11:40;9.73;;;6.13;;
36383;SDS011;22418;51.210;6.976;2023-05-16T00:14:10;10.77;;;5.93;;
36383;SDS011;22418;51.210;6.976;2023-05-16T00:16:41;8.30;;;5.90;;
36383;SDS011;22418;51.210;6.976;2023-05-16T00:19:12;8.77;;;6.07;;
36383;SDS011;22418;51.210;6.976;2023-05-16T00:21:42;9.43;;;5.93;;
36383;SDS011;22418;51.210;6.976;2023-05-16T00:24:13;10.18;;;6.15;;
36383;SDS011;22418;51.210;6.976;2023-05-16T00:26:44;9.68;;;6.82;;
36383;SDS011;22418;51.210;6.976;2023-05-16T00:29:15;9.80;;;6.23;;
36383;SDS011;22418;51.210;6.976;2023-05-16T00:31:45;10.87;;;7.00;;
36383;SDS011;22418;51.210;6.976;2023-05-16T00:34:16;12.90;;;7.20;;
36383;SDS011;22418;51.210;6.976;2023-05-16T00:36:46;9.17;;;6.33;;
36383;SDS011;22418;51.210;6.976;2023-05-16T00:39:18;8.02;;;5.43;;
36383;SDS011;22418;51.210;6.976;2023-05-16T00:41:49;5.70;;;4.57;;
36383;SDS011;22418;51.210;6.976;2023-05-16T00:44:20;5.32;;;4.32;;
36383;SDS011;22418;51.210;6.976;2023-05-16T00:46:50;7.13;;;4.87;;
36383;SDS011;22418;51.210;6.976;2023-05-16T00:49:21;7.37;;;4.90;;
36383;SDS011;22418;51.210;6.976;2023-05-16T00:51:52;8.03;;;5.03;;
36383;SDS011;22418;51.210;6.976;2023-05-16T00:54:23;6.18;;;4.50;;
36383;SDS011;22418;51.210;6.976;2023-05-16T00:56:57;10.35;;;4.72;;
36383;SDS011;22418;51.210;6.976;2023-05-16T00:59:28;5.50;;;4.37;;
36383;SDS011;22418;51.210;6.976;2023-05-16T01:01:59;7.80;;;4.70;;
36383;SDS011;22418;51.210;6.976;2023-05-16T01:04:29;8.13;;;4.35;;
36383;SDS011;22418;51.210;6.976;2023-05-16T01:09:32;7.07;;;3.17;;
36383;SDS011;22418;51.210;6.976;2023-05-16T01:14:51;7.75;;;3.75;;
36383;SDS011;22418;51.210;6.976;2023-05-16T01:20:18;12.15;;;2.88;;
36383;SDS011;22418;51.210;6.976;2023-05-16T01:22:55;5.63;;;2.35;;
36383;SDS011;22418;51.210;6.976;2023-05-16T01:28:46;2.88;;;2.10;;
36383;SDS011;22418;51.210;6.976;2023-05-16T01:31:18;6.63;;;2.30;;
36383;SDS011;22418;51.210;6.976;2023-05-16T01:33:49;5.25;;;2.90;;
36383;SDS011;22418;51.210;6.976;2023-05-16T01:42:13;6.10;;;2.17;;
36383;SDS011;22418;51.210;6.976;2023-05-16T01:45:03;7.97;;;2.58;;
36383;SDS011;22418;51.210;6.976;2023-05-16T01:47:44;4.00;;;1.85;;
36383;SDS011;22418;51.210;6.976;2023-05-16T01:50:20;6.53;;;2.90;;
36383;SDS011;22418;51.210;6.976;2023-05-16T01:52:58;8.10;;;3.65;;
36383;SDS011;22418;51.210;6.976;2023-05-16T01:55:38;9.40;;;3.47;;
36383;SDS011;22418;51.210;6.976;2023-05-16T01:58:19;7.80;;;3.33;;
36383;SDS011;22418;51.210;6.976;2023-05-16T02:00:52;9.98;;;3.53;;
36383;SDS011;22418;51.210;6.976;2023-05-16T02:03:23;14.10;;;3.22;;
36383;SDS011;22418;51.210;6.976;2023-05-16T02:05:54;10.30;;;2.83;;
36383;SDS011;22418;51.210;6.976;2023-05-16T02:08:24;8.37;;;3.10;;
36383;SDS011;22418;51.210;6.976;2023-05-16T02:10:56;8.15;;;2.58;;
36383;SDS011;22418;51.210;6.976;2023-05-16T02:13:27;11.97;;;3.10;;
36383;SDS011;22418;51.210;6.976;2023-05-16T02:15:57;9.77;;;3.03;;
36383;SDS011;22418;51.210;6.976;2023-05-16T02:18:28;14.10;;;3.03;;
36383;SDS011;22418;51.210;6.976;2023-05-16T02:20:58;9.87;;;2.90;;
36383;SDS011;22418;51.210;6.976;2023-05-16T02:23:29;14.13;;;3.27;;
36383;SDS011;22418;51.210;6.976;2023-05-16T02:25:59;11.77;;;3.10;;
36383;SDS011;22418;51.210;6.976;2023-05-16T02:28:30;13.53;;;3.37;;
36383;SDS011;22418;51.210;6.976;2023-05-16T02:31:01;16.67;;;4.10;;
36383;SDS011;22418;51.210;6.976;2023-05-16T02:33:32;15.60;;;3.30;;
36383;SDS011;22418;51.210;6.976;2023-05-16T02:36:03;17.17;;;3.55;;
36383;SDS011;22418;51.210;6.976;2023-05-16T02:38:34;15.77;;;3.50;;
36383;SDS011;22418;51.210;6.976;2023-05-16T02:41:04;15.53;;;3.90;;
36383;SDS011;22418;51.210;6.976;2023-05-16T02:43:35;16.47;;;3.03;;
36383;SDS011;22418;51.210;6.976;2023-05-16T02:46:19;12.37;;;3.10;;
36383;SDS011;22418;51.210;6.976;2023-05-16T02:48:54;15.32;;;4.30;;
36383;SDS011;22418;51.210;6.976;2023-05-16T02:51:25;20.58;;;3.85;;
36383;SDS011;22418;51.210;6.976;2023-05-16T02:53:57;15.85;;;3.97;;
36383;SDS011;22418;51.210;6.976;2023-05-16T02:56:29;20.77;;;4.30;;
36383;SDS011;22418;51.210;6.976;2023-05-16T02:59:00;21.33;;;4.20;;
36383;SDS011;22418;51.210;6.976;2023-05-16T03:01:30;18.50;;;4.53;;
36383;SDS011;22418;51.210;6.976;2023-05-16T03:04:01;14.88;;;5.30;;
36383;SDS011;22418;51.210;6.976;2023-05-16T03:06:32;24.07;;;4.97;;
36383;SDS011;22418;51.210;6.976;2023-05-16T03:09:03;15.37;;;4.40;;
36383;SDS011;22418;51.210;6.976;2023-05-16T03:11:33;23.67;;;5.57;;
36383;SDS011;22418;51.210;6.976;2023-05-16T03:14:04;19.60;;;4.10;;
36383;SDS011;22418;51.210;6.976;2023-05-16T03:16:35;21.43;;;4.63;;
36383;SDS011;22418;51.210;6.976;2023-05-16T03:19:07;17.27;;;4.47;;
36383;SDS011;22418;51.210;6.976;2023-05-16T03:21:38;24.40;;;4.70;;
36383;SDS011;22418;51.210;6.976;2023-05-16T03:24:09;17.87;;;4.50;;
36383;SDS011;22418;51.210;6.976;2023-05-16T03:26:40;28.45;;;4.00;;
36383;SDS011;22418;51.210;6.976;2023-05-16T03:29:11;27.60;;;4.23;;
36383;SDS011;22418;51.210;6.976;2023-05-16T03:31:41;21.37;;;3.93;;
36383;SDS011;22418;51.210;6.976;2023-05-16T03:34:12;21.53;;;4.57;;
36383;SDS011;22418;51.210;6.976;2023-05-16T03:36:42;25.80;;;4.60;;
36383;SDS011;22418;51.210;6.976;2023-05-16T03:39:13;23.43;;;3.87;;
36383;SDS011;22418;51.210;6.976;2023-05-16T03:41:44;24.05;;;4.03;;
36383;SDS011;22418;51.210;6.976;2023-05-16T03:44:15;27.30;;;4.50;;
36383;SDS011;22418;51.210;6.976;2023-05-16T03:46:45;21.00;;;3.67;;
36383;SDS011;22418;51.210;6.976;2023-05-16T03:49:16;24.70;;;4.20;;
36383;SDS011;22418;51.210;6.976;2023-05-16T03:51:47;29.27;;;4.75;;
36383;SDS011;22418;51.210;6.976;2023-05-16T03:54:17;21.47;;;4.57;;
36383;SDS011;22418;51.210;6.976;2023-05-16T03:56:48;22.13;;;4.30;;
36383;SDS011;22418;51.210;6.976;2023-05-16T03:59:19;19.57;;;3.53;;
36383;SDS011;22418;51.210;6.976;2023-05-16T04:01:49;33.27;;;5.20;;
36383;SDS011;22418;51.210;6.976;2023-05-16T04:04:20;18.43;;;3.67;;
36383;SDS011;22418;51.210;6.976;2023-05-16T04:06:50;21.57;;;4.30;;
36383;SDS011;22418;51.210;6.976;2023-05-16T04:09:21;30.77;;;3.80;;
36383;SDS011;22418;51.210;6.976;2023-05-16T04:11:51;24.87;;;3.87;;
36383;SDS011;22418;51.210;6.976;2023-05-16T04:14:22;23.63;;;3.60;;
36383;SDS011;22418;51.210;6.976;2023-05-16T04:16:53;29.80;;;4.70;;
36383;SDS011;22418;51.210;6.976;2023-05-16T04:19:24;27.38;;;3.88;;
36383;SDS011;22418;51.210;6.976;2023-05-16T04:21:55;22.45;;;3.13;;
36383;SDS011;22418;51.210;6.976;2023-05-16T04:24:25;25.70;;;4.37;;
36383;SDS011;22418;51.210;6.976;2023-05-16T04:26:57;22.13;;;3.97;;
36383;SDS011;22418;51.210;6.976;2023-05-16T04:29:28;24.50;;;3.10;;
36383;SDS011;22418;51.210;6.976;2023-05-16T04:31:58;24.83;;;4.47;;
36383;SDS011;22418;51.210;6.976;2023-05-16T04:34:29;22.98;;;3.60;;
36383;SDS011;22418;51.210;6.976;2023-05-16T04:37:00;22.33;;;3.60;;
36383;SDS011;22418;51.210;6.976;2023-05-16T04:39:31;25.58;;;3.90;;
36383;SDS011;22418;51.210;6.976;2023-05-16T04:42:02;27.08;;;4.53;;
36383;SDS011;22418;51.210;6.976;2023-05-16T04:44:33;22.42;;;3.10;;
36383;SDS011;22418;51.210;6.976;2023-05-16T04:47:04;24.90;;;3.63;;
36383;SDS011;22418;51.210;6.976;2023-05-16T04:49:35;31.30;;;4.28;;
36383;SDS011;22418;51.210;6.976;2023-05-16T04:52:06;29.67;;;4.17;;
36383;SDS011;22418;51.210;6.976;2023-05-16T04:54:37;25.05;;;3.45;;
36383;SDS011;22418;51.210;6.976;2023-05-16T04:57:08;26.15;;;3.72;;
36383;SDS011;22418;51.210;6.976;2023-05-16T04:59:39;18.43;;;3.00;;
36383;SDS011;22418;51.210;6.976;2023-05-16T05:02:09;19.70;;;3.67;;
36383;SDS011;22418;51.210;6.976;2023-05-16T05:04:40;27.13;;;3.87;;
36383;SDS011;22418;51.210;6.976;2023-05-16T05:07:11;20.20;;;3.33;;
36383;SDS011;22418;51.210;6.976;2023-05-16T05:09:41;23.77;;;3.10;;
36383;SDS011;22418;51.210;6.976;2023-05-16T05:12:12;24.58;;;3.75;;
36383;SDS011;22418;51.210;6.976;2023-05-16T05:14:43;22.37;;;3.00;;
36383;SDS011;22418;51.210;6.976;2023-05-16T05:17:13;24.53;;;3.63;;
36383;SDS011;22418;51.210;6.976;2023-05-16T05:19:45;20.17;;;3.25;;
36383;SDS011;22418;51.210;6.976;2023-05-16T05:22:17;22.75;;;3.33;;
36383;SDS011;22418;51.210;6.976;2023-05-16T05:24:47;24.47;;;3.30;;
36383;SDS011;22418;51.210;6.976;2023-05-16T05:27:18;17.67;;;3.50;;
36383;SDS011;22418;51.210;6.976;2023-05-16T05:29:48;22.63;;;3.67;;
36383;SDS011;22418;51.210;6.976;2023-05-16T05:32:19;21.53;;;3.50;;
36383;SDS011;22418;51.210;6.976;2023-05-16T05:34:49;27.80;;;3.67;;
36383;SDS011;22418;51.210;6.976;2023-05-16T05:37:21;14.43;;;2.78;;
36383;SDS011;22418;51.210;6.976;2023-05-16T05:39:52;16.57;;;3.43;;
36383;SDS011;22418;51.210;6.976;2023-05-16T05:42:22;23.33;;;3.40;;
36383;SDS011;22418;51.210;6.976;2023-05-16T05:44:53;16.17;;;4.07;;
36383;SDS011;22418;51.210;6.976;2023-05-16T05:47:23;19.85;;;2.88;;
36383;SDS011;22418;51.210;6.976;2023-05-16T05:49:54;20.57;;;3.33;;
36383;SDS011;22418;51.210;6.976;2023-05-16T05:52:25;17.95;;;2.92;;
36383;SDS011;22418;51.210;6.976;2023-05-16T05:54:57;19.95;;;2.55;;
36383;SDS011;22418;51.210;6.976;2023-05-16T05:57:28;24.08;;;3.30;;
36383;SDS011;22418;51.210;6.976;2023-05-16T05:59:59;19.07;;;2.73;;
36383;SDS011;22418;51.210;6.976;2023-05-16T06:02:30;18.03;;;2.77;;
36383;SDS011;22418;51.210;6.976;2023-05-16T06:05:00;21.63;;;3.43;;
36383;SDS011;22418;51.210;6.976;2023-05-16T06:07:31;18.43;;;2.63;;
36383;SDS011;22418;51.210;6.976;2023-05-16T06:10:02;22.40;;;3.57;;
36383;SDS011;22418;51.210;6.976;2023-05-16T06:12:34;19.15;;;2.75;;
36383;SDS011;22418;51.210;6.976;2023-05-16T06:15:04;21.03;;;3.27;;
36383;SDS011;22418;51.210;6.976;2023-05-16T06:17:35;20.75;;;3.83;;
36383;SDS011;22418;51.210;6.976;2023-05-16T06:20:06;17.03;;;2.60;;
36383;SDS011;22418;51.210;6.976;2023-05-16T06:22:37;23.00;;;3.60;;
36383;SDS011;22418;51.210;6.976;2023-05-16T06:25:08;16.67;;;2.73;;
36383;SDS011;22418;51.210;6.976;2023-05-16T06:27:38;14.35;;;2.53;;
36383;SDS011;22418;51.210;6.976;2023-05-16T06:30:09;15.90;;;2.65;;
36383;SDS011;22418;51.210;6.976;2023-05-16T06:32:40;12.70;;;3.30;;
36383;SDS011;22418;51.210;6.976;2023-05-16T06:35:10;18.63;;;2.92;;
36383;SDS011;22418;51.210;6.976;2023-05-16T06:37:41;14.05;;;2.60;;
36383;SDS011;22418;51.210;6.976;2023-05-16T06:40:12;12.20;;;2.10;;
36383;SDS011;22418;51.210;6.976;2023-05-16T06:42:42;15.32;;;2.55;;
36383;SDS011;22418;51.210;6.976;2023-05-16T06:45:13;13.40;;;3.53;;
36383;SDS011;22418;51.210;6.976;2023-05-16T06:47:44;17.02;;;3.85;;
36383;SDS011;22418;51.210;6.976;2023-05-16T06:50:14;10.60;;;2.63;;
36383;SDS011;22418;51.210;6.976;2023-05-16T06:52:45;16.55;;;2.95;;
36383;SDS011;22418;51.210;6.976;2023-05-16T06:55:18;11.88;;;2.55;;
36383;SDS011;22418;51.210;6.976;2023-05-16T06:57:49;14.05;;;2.83;;
36383;SDS011;22418;51.210;6.976;2023-05-16T07:02:50;9.10;;;2.50;;
36383;SDS011;22418;51.210;6.976;2023-05-16T07:05:23;12.48;;;2.78;;
36383;SDS011;22418;51.210;6.976;2023-05-16T07:10:24;11.63;;;2.53;;
36383;SDS011;22418;51.210;6.976;2023-05-16T07:12:56;12.82;;;2.30;;
36383;SDS011;22418;51.210;6.976;2023-05-16T07:15:27;8.77;;;2.30;;
36383;SDS011;22418;51.210;6.976;2023-05-16T07:17:57;13.85;;;2.50;;
36383;SDS011;22418;51.210;6.976;2023-05-16T07:20:28;11.30;;;2.35;;
36383;SDS011;22418;51.210;6.976;2023-05-16T07:22:58;13.45;;;2.88;;
36383;SDS011;22418;51.210;6.976;2023-05-16T07:25:29;11.50;;;2.42;;
36383;SDS011;22418;51.210;6.976;2023-05-16T07:28:00;13.02;;;2.47;;
36383;SDS011;22418;51.210;6.976;2023-05-16T07:30:31;16.85;;;2.35;;
36383;SDS011;22418;51.210;6.976;2023-05-16T07:33:01;9.03;;;2.10;;
36383;SDS011;22418;51.210;6.976;2023-05-16T07:35:32;13.67;;;2.40;;
36383;SDS011;22418;51.210;6.976;2023-05-16T07:38:02;12.43;;;2.47;;
36383;SDS011;22418;51.210;6.976;2023-05-16T07:40:33;10.97;;;2.70;;
36383;SDS011;22418;51.210;6.976;2023-05-16T07:43:04;9.33;;;2.17;;
36383;SDS011;22418;51.210;6.976;2023-05-16T07:45:34;18.17;;;2.30;;
36383;SDS011;22418;51.210;6.976;2023-05-16T07:48:05;10.57;;;1.98;;
36383;SDS011;22418;51.210;6.976;2023-05-16T07:50:36;10.73;;;2.50;;
36383;SDS011;22418;51.210;6.976;2023-05-16T07:53:06;14.93;;;2.00;;
36383;SDS011;22418;51.210;6.976;2023-05-16T07:55:37;12.73;;;1.90;;
36383;SDS011;22418;51.210;6.976;2023-05-16T07:58:07;11.20;;;2.03;;
36383;SDS011;22418;51.210;6.976;2023-05-16T08:00:38;11.87;;;2.10;;
36383;SDS011;22418;51.210;6.976;2023-05-16T08:03:09;9.33;;;1.90;;
36383;SDS011;22418;51.210;6.976;2023-05-16T08:05:39;9.30;;;2.13;;
36383;SDS011;22418;51.210;6.976;2023-05-16T08:08:10;13.20;;;2.13;;
36383;SDS011;22418;51.210;6.976;2023-05-16T08:10:40;10.00;;;1.93;;
36383;SDS011;22418;51.210;6.976;2023-05-16T08:13:11;13.03;;;1.97;;
36383;SDS011;22418;51.210;6.976;2023-05-16T08:15:42;11.63;;;2.03;;
36383;SDS011;22418;51.210;6.976;2023-05-16T08:18:13;8.47;;;2.10;;
36383;SDS011;22418;51.210;6.976;2023-05-16T08:20:45;13.93;;;1.80;;
36383;SDS011;22418;51.210;6.976;2023-05-16T08:23:15;8.23;;;1.90;;
36383;SDS011;22418;51.210;6.976;2023-05-16T08:25:46;9.33;;;1.77;;
36383;SDS011;22418;51.210;6.976;2023-05-16T08:28:16;9.90;;;1.70;;
36383;SDS011;22418;51.210;6.976;2023-05-16T08:30:47;11.20;;;1.83;;
36383;SDS011;22418;51.210;6.976;2023-05-16T08:33:17;10.60;;;1.90;;
36383;SDS011;22418;51.210;6.976;2023-05-16T08:35:49;7.37;;;1.50;;
36383;SDS011;22418;51.210;6.976;2023-05-16T08:38:21;13.90;;;2.30;;
36383;SDS011;22418;51.210;6.976;2023-05-16T08:40:52;13.73;;;1.97;;
36383;SDS011;22418;51.210;6.976;2023-05-16T08:43:22;11.33;;;2.30;;
36383;SDS011;22418;51.210;6.976;2023-05-16T08:45:53;13.93;;;1.93;;
36383;SDS011;22418;51.210;6.976;2023-05-16T08:48:24;8.37;;;1.53;;
36383;SDS011;22418;51.210;6.976;2023-05-16T08:50:57;7.72;;;2.20;;
36383;SDS011;22418;51.210;6.976;2023-05-16T08:53:30;10.35;;;2.20;;
36383;SDS011;22418;51.210;6.976;2023-05-16T08:56:03;7.25;;;1.80;;
36383;SDS011;22418;51.210;6.976;2023-05-16T08:58:36;12.25;;;1.92;;
36383;SDS011;22418;51.210;6.976;2023-05-16T09:01:08;13.98;;;2.08;;
36383;SDS011;22418;51.210;6.976;2023-05-16T09:03:39;11.50;;;1.83;;
36383;SDS011;22418;51.210;6.976;2023-05-16T09:06:10;10.02;;;1.92;;
36383;SDS011;22418;51.210;6.976;2023-05-16T09:08:41;8.00;;;1.77;;
36383;SDS011;22418;51.210;6.976;2023-05-16T09:11:11;9.63;;;1.60;;
36383;SDS011;22418;51.210;6.976;2023-05-16T09:13:42;11.07;;;1.40;;
36383;SDS011;22418;51.210;6.976;2023-05-16T09:16:14;8.55;;;1.70;;
36383;SDS011;22418;51.210;6.976;2023-05-16T09:18:55;8.10;;;1.50;;
36383;SDS011;22418;51.210;6.976;2023-05-16T09:21:31;7.43;;;1.85;;
36383;SDS011;22418;51.210;6.976;2023-05-16T09:24:03;19.10;;;2.03;;
36383;SDS011;22418;51.210;6.976;2023-05-16T09:26:36;7.15;;;1.38;;
36383;SDS011;22418;51.210;6.976;2023-05-16T09:29:10;7.28;;;1.50;;
36383;SDS011;22418;51.210;6.976;2023-05-16T09:31:42;7.25;;;1.42;;
36383;SDS011;22418;51.210;6.976;2023-05-16T09:34:15;11.63;;;1.67;;
36383;SDS011;22418;51.210;6.976;2023-05-16T09:36:46;5.97;;;1.37;;
36383;SDS011;22418;51.210;6.976;2023-05-16T09:39:23;6.35;;;1.20;;
36383;SDS011;22418;51.210;6.976;2023-05-16T09:41:57;6.70;;;1.70;;
36383;SDS011;22418;51.210;6.976;2023-05-16T09:44:28;6.22;;;1.33;;
36383;SDS011;22418;51.210;6.976;2023-05-16T09:47:01;8.45;;;1.70;;
36383;SDS011;22418;51.210;6.976;2023-05-16T09:49:31;11.43;;;1.53;;
36383;SDS011;22418;51.210;6.976;2023-05-16T09:52:02;8.73;;;1.43;;
36383;SDS011;22418;51.210;6.976;2023-05-16T09:54:33;6.28;;;1.30;;
36383;SDS011;22418;51.210;6.976;2023-05-16T09:57:04;7.72;;;1.20;;
36383;SDS011;22418;51.210;6.976;2023-05-16T09:59:36;7.28;;;1.50;;
36383;SDS011;22418;51.210;6.976;2023-05-16T10:02:08;8.52;;;1.50;;
36383;SDS011;22418;51.210;6.976;2023-05-16T10:07:10;6.93;;;1.23;;
36383;SDS011;22418;51.210;6.976;2023-05-16T10:09:42;8.52;;;1.65;;
36383;SDS011;22418;51.210;6.976;2023-05-16T10:12:13;4.50;;;1.65;;
36383;SDS011;22418;51.210;6.976;2023-05-16T10:14:44;9.05;;;1.75;;
36383;SDS011;22418;51.210;6.976;2023-05-16T10:17:18;7.72;;;1.42;;
36383;SDS011;22418;51.210;6.976;2023-05-16T10:19:50;9.00;;;1.65;;
36383;SDS011;22418;51.210;6.976;2023-05-16T10:22:23;10.98;;;1.85;;
36383;SDS011;22418;51.210;6.976;2023-05-16T10:24:59;7.65;;;1.15;;
36383;SDS011;22418;51.210;6.976;2023-05-16T10:27:53;3.67;;;1.23;;
36383;SDS011;22418;51.210;6.976;2023-05-16T10:30:25;10.30;;;1.40;;
36383;SDS011;22418;51.210;6.976;2023-05-16T10:32:56;12.77;;;1.30;;
36383;SDS011;22418;51.210;6.976;2023-05-16T10:35:28;9.38;;;1.48;;
36383;SDS011;22418;51.210;6.976;2023-05-16T10:37:59;4.22;;;1.20;;
36383;SDS011;22418;51.210;6.976;2023-05-16T10:40:31;9.43;;;1.30;;
36383;SDS011;22418;51.210;6.976;2023-05-16T10:43:03;10.20;;;1.20;;
36383;SDS011;22418;51.210;6.976;2023-05-16T10:45:38;9.05;;;1.40;;
36383;SDS011;22418;51.210;6.976;2023-05-16T10:48:11;4.88;;;1.30;;
36383;SDS011;22418;51.210;6.976;2023-05-16T10:50:42;6.95;;;1.38;;
36383;SDS011;22418;51.210;6.976;2023-05-16T10:53:15;9.15;;;1.70;;
36383;SDS011;22418;51.210;6.976;2023-05-16T11:17:01;10.88;;;1.85;;
36383;SDS011;22418;51.210;6.976;2023-05-16T11:22:28;8.55;;;1.90;;
36383;SDS011;22418;51.210;6.976;2023-05-16T11:24:59;7.47;;;1.70;;
36383;SDS011;22418;51.210;6.976;2023-05-16T11:27:31;11.02;;;2.00;;
36383;SDS011;22418;51.210;6.976;2023-05-16T11:32:47;8.88;;;2.10;;
36383;SDS011;22418;51.210;6.976;2023-05-16T11:35:17;14.32;;;2.40;;
36383;SDS011;22418;51.210;6.976;2023-05-16T11:37:48;14.63;;;2.47;;
36383;SDS011;22418;51.210;6.976;2023-05-16T11:40:19;14.00;;;1.98;;
36383;SDS011;22418;51.210;6.976;2023-05-16T11:42:50;7.73;;;1.53;;
36383;SDS011;22418;51.210;6.976;2023-05-16T11:45:21;6.93;;;1.42;;
36383;SDS011;22418;51.210;6.976;2023-05-16T11:47:59;8.20;;;1.80;;
36383;SDS011;22418;51.210;6.976;2023-05-16T11:50:33;9.60;;;1.70;;
36383;SDS011;22418;51.210;6.976;2023-05-16T11:53:04;11.38;;;1.85;;
36383;SDS011;22418;51.210;6.976;2023-05-16T11:55:35;8.45;;;1.80;;
36383;SDS011;22418;51.210;6.976;2023-05-16T11:58:08;11.23;;;1.58;;
36383;SDS011;22418;51.210;6.976;2023-05-16T12:00:46;6.13;;;1.98;;
36383;SDS011;22418;51.210;6.976;2023-05-16T12:03:18;10.77;;;1.88;;
36383;SDS011;22418;51.210;6.976;2023-05-16T12:05:52;7.72;;;1.40;;
36383;SDS011;22418;51.210;6.976;2023-05-16T12:08:24;5.50;;;1.67;;
36383;SDS011;22418;51.210;6.976;2023-05-16T12:10:55;4.93;;;1.50;;
36383;SDS011;22418;51.210;6.976;2023-05-16T12:13:25;8.37;;;1.40;;
36383;SDS011;22418;51.210;6.976;2023-05-16T12:15:56;7.30;;;1.83;;
36383;SDS011;22418;51.210;6.976;2023-05-16T12:18:27;8.05;;;1.30;;
36383;SDS011;22418;51.210;6.976;2023-05-16T12:20:58;9.23;;;1.60;;
36383;SDS011;22418;51.210;6.976;2023-05-16T12:23:28;7.53;;;1.20;;
36383;SDS011;22418;51.210;6.976;2023-05-16T12:26:01;8.13;;;1.10;;
36383;SDS011;22418;51.210;6.976;2023-05-16T12:28:36;6.75;;;1.15;;
36383;SDS011;22418;51.210;6.976;2023-05-16T12:31:10;6.28;;;0.98;;
36383;SDS011;22418;51.210;6.976;2023-05-16T12:33:47;8.98;;;1.40;;
36383;SDS011;22418;51.210;6.976;2023-05-16T12:36:24;6.43;;;1.17;;
36383;SDS011;22418;51.210;6.976;2023-05-16T12:39:01;5.70;;;1.10;;
36383;SDS011;22418;51.210;6.976;2023-05-16T12:41:32;6.80;;;1.20;;
36383;SDS011;22418;51.210;6.976;2023-05-16T12:44:12;10.52;;;1.65;;
36383;SDS011;22418;51.210;6.976;2023-05-16T12:46:48;4.78;;;1.10;;
36383;SDS011;22418;51.210;6.976;2023-05-16T12:49:20;5.57;;;1.08;;
36383;SDS011;22418;51.210;6.976;2023-05-16T12:51:54;7.60;;;0.95;;
36383;SDS011;22418;51.210;6.976;2023-05-16T12:54:28;4.50;;;0.93;;
36383;SDS011;22418;51.210;6.976;2023-05-16T12:56:58;4.97;;;1.03;;
36383;SDS011;22418;51.210;6.976;2023-05-16T12:59:29;5.53;;;1.08;;
36383;SDS011;22418;51.210;6.976;2023-05-16T13:02:00;3.85;;;1.15;;
36383;SDS011;22418;51.210;6.976;2023-05-16T13:04:30;7.07;;;0.90;;
36383;SDS011;22418;51.210;6.976;2023-05-16T13:07:01;4.90;;;0.97;;
36383;SDS011;22418;51.210;6.976;2023-05-16T13:09:33;5.35;;;1.10;;
36383;SDS011;22418;51.210;6.976;2023-05-16T13:12:04;5.87;;;1.23;;
36383;SDS011;22418;51.210;6.976;2023-05-16T13:14:35;3.70;;;1.10;;
36383;SDS011;22418;51.210;6.976;2023-05-16T13:17:05;8.20;;;1.43;;
36383;SDS011;22418;51.210;6.976;2023-05-16T13:19:36;4.90;;;1.10;;
36383;SDS011;22418;51.210;6.976;2023-05-16T13:22:06;4.47;;;1.00;;
36383;SDS011;22418;51.210;6.976;2023-05-16T13:24:37;5.50;;;1.23;;
36383;SDS011;22418;51.210;6.976;2023-05-16T13:27:07;5.47;;;1.00;;
36383;SDS011;22418;51.210;6.976;2023-05-16T13:29:38;2.90;;;0.83;;
36383;SDS011;22418;51.210;6.976;2023-05-16T13:32:09;4.72;;;0.57;;
36383;SDS011;22418;51.210;6.976;2023-05-16T13:34:40;2.33;;;0.80;;
36383;SDS011;22418;51.210;6.976;2023-05-16T13:37:10;6.03;;;1.20;;
36383;SDS011;22418;51.210;6.976;2023-05-16T13:39:41;5.97;;;0.97;;
36383;SDS011;22418;51.210;6.976;2023-05-16T13:42:11;5.03;;;0.90;;
36383;SDS011;22418;51.210;6.976;2023-05-16T13:44:42;6.00;;;1.00;;
36383;SDS011;22418;51.210;6.976;2023-05-16T13:47:13;7.43;;;1.17;;
36383;SDS011;22418;51.210;6.976;2023-05-16T13:49:44;5.47;;;1.07;;
36383;SDS011;22418;51.210;6.976;2023-05-16T13:52:15;5.60;;;1.63;;
36383;SDS011;22418;51.210;6.976;2023-05-16T13:54:45;4.13;;;0.97;;
36383;SDS011;22418;51.210;6.976;2023-05-16T13:57:16;3.83;;;1.00;;
36383;SDS011;22418;51.210;6.976;2023-05-16T13:59:47;6.80;;;1.03;;
36383;SDS011;22418;51.210;6.976;2023-05-16T14:02:17;3.57;;;0.87;;
36383;SDS011;22418;51.210;6.976;2023-05-16T14:04:48;3.95;;;0.90;;
36383;SDS011;22418;51.210;6.976;2023-05-16T14:07:19;5.47;;;1.07;;
36383;SDS011;22418;51.210;6.976;2023-05-16T14:09:50;3.53;;;1.23;;
36383;SDS011;22418;51.210;6.976;2023-05-16T14:12:20;3.90;;;1.30;;
36383;SDS011;22418;51.210;6.976;2023-05-16T14:14:51;7.30;;;1.33;;
36383;SDS011;22418;51.210;6.976;2023-05-16T14:17:23;5.75;;;1.30;;
36383;SDS011;22418;51.210;6.976;2023-05-16T14:19:54;6.13;;;1.10;;
36383;SDS011;22418;51.210;6.976;2023-05-16T14:22:24;4.83;;;1.13;;
36383;SDS011;22418;51.210;6.976;2023-05-16T14:24:55;6.10;;;1.17;;
36383;SDS011;22418;51.210;6.976;2023-05-16T14:27:26;6.00;;;1.35;;
36383;SDS011;22418;51.210;6.976;2023-05-16T14:29:57;9.83;;;1.17;;
36383;SDS011;22418;51.210;6.976;2023-05-16T14:32:28;5.10;;;1.40;;
36383;SDS011;22418;51.210;6.976;2023-05-16T14:34:59;7.33;;;1.30;;
36383;SDS011;22418;51.210;6.976;2023-05-16T14:37:29;8.30;;;1.30;;
36383;SDS011;22418;51.210;6.976;2023-05-16T14:40:00;9.63;;;1.60;;
36383;SDS011;22418;51.210;6.976;2023-05-16T14:42:31;5.43;;;1.73;;
36383;SDS011;22418;51.210;6.976;2023-05-16T14:45:01;10.10;;;1.53;;
36383;SDS011;22418;51.210;6.976;2023-05-16T14:47:32;5.05;;;1.25;;
36383;SDS011;22418;51.210;6.976;2023-05-16T14:50:03;7.33;;;2.27;;
36383;SDS011;22418;51.210;6.976;2023-05-16T14:52:36;9.63;;;1.90;;
36383;SDS011;22418;51.210;6.976;2023-05-16T14:55:07;11.00;;;1.98;;
36383;SDS011;22418;51.210;6.976;2023-05-16T14:57:37;5.70;;;1.87;;
36383;SDS011;22418;51.210;6.976;2023-05-16T15:00:08;6.30;;;1.40;;
36383;SDS011;22418;51.210;6.976;2023-05-16T15:05:10;9.60;;;1.47;;
36383;SDS011;22418;51.210;6.976;2023-05-16T15:07:41;5.43;;;1.50;;
36383;SDS011;22418;51.210;6.976;2023-05-16T15:10:13;6.85;;;1.98;;
36383;SDS011;22418;51.210;6.976;2023-05-16T15:12:43;8.23;;;1.60;;
36383;SDS011;22418;51.210;6.976;2023-05-16T15:15:14;7.10;;;1.60;;
36383;SDS011;22418;51.210;6.976;2023-05-16T15:17:44;6.07;;;1.47;;
36383;SDS011;22418;51.210;6.976;2023-05-16T15:20:15;8.33;;;1.90;;
36383;SDS011;22418;51.210;6.976;2023-05-16T15:22:46;7.83;;;1.63;;
36383;SDS011;22418;51.210;6.976;2023-05-16T15:25:16;4.47;;;1.50;;
36383;SDS011;22418;51.210;6.976;2023-05-16T15:27:47;11.33;;;1.93;;
36383;SDS011;22418;51.210;6.976;2023-05-16T15:30:17;10.33;;;1.70;;
36383;SDS011;22418;51.210;6.976;2023-05-16T15:32:48;9.67;;;1.63;;
36383;SDS011;22418;51.210;6.976;2023-05-16T15:35:18;7.77;;;2.13;;
36383;SDS011;22418;51.210;6.976;2023-05-16T15:37:49;9.70;;;1.80;;
36383;SDS011;22418;51.210;6.976;2023-05-16T15:40:21;6.15;;;1.40;;
36383;SDS011;22418;51.210;6.976;2023-05-16T15:42:52;8.45;;;1.70;;
36383;SDS011;22418;51.210;6.976;2023-05-16T15:45:23;13.50;;;2.10;;
36383;SDS011;22418;51.210;6.976;2023-05-16T15:47:53;10.63;;;1.70;;
36383;SDS011;22418;51.210;6.976;2023-05-16T15:50:24;6.30;;;1.80;;
36383;SDS011;22418;51.210;6.976;2023-05-16T15:52:55;9.13;;;1.92;;
36383;SDS011;22418;51.210;6.976;2023-05-16T15:55:27;9.35;;;2.00;;
36383;SDS011;22418;51.210;6.976;2023-05-16T15:57:57;5.50;;;2.10;;
36383;SDS011;22418;51.210;6.976;2023-05-16T16:00:28;8.05;;;1.55;;